createdAt,value
2023-05-06T00:00:56.295Z,75.91
2023-05-06T00:03:23.007Z,75.92
2023-05-06T00:05:49.647Z,75.70
2023-05-06T00:08:16.577Z,75.71
2023-05-06T00:10:43.029Z,75.89
2023-05-06T00:13:09.571Z,76.14
2023-05-06T00:15:36.531Z,76.18
2023-05-06T00:18:03.166Z,75.95
2023-05-06T00:20:29.707Z,76.12
2023-05-06T00:22:56.188Z,76.17
2023-05-06T00:25:22.616Z,76.30
2023-05-06T00:27:49.030Z,75.95
2023-05-06T00:30:15.504Z,76.26
2023-05-06T00:32:42.072Z,76.24
2023-05-06T00:35:09.298Z,76.12
2023-05-06T00:37:35.919Z,76.28
2023-05-06T00:40:03.451Z,76.45
2023-05-06T00:42:29.928Z,76.32
2023-05-06T00:44:56.388Z,76.46
2023-05-06T00:47:23.365Z,76.13
2023-05-06T00:49:50.224Z,76.00
2023-05-06T00:52:19.184Z,76.19
2023-05-06T00:54:45.710Z,76.27
2023-05-06T00:57:12.238Z,76.43
2023-05-06T00:59:39.636Z,76.16
2023-05-06T01:02:06.084Z,76.28
2023-05-06T01:04:33.586Z,76.49
2023-05-06T01:07:35.354Z,76.37
2023-05-06T01:10:10.645Z,76.22
2023-05-06T01:12:50.569Z,76.56
2023-05-06T01:15:28.342Z,76.51
2023-05-06T01:17:58.539Z,76.39
2023-05-06T01:20:25.190Z,76.75
2023-05-06T01:22:52.533Z,76.56
2023-05-06T01:25:22.915Z,76.53
2023-05-06T01:27:49.954Z,76.54
2023-05-06T01:30:19.104Z,76.64
2023-05-06T01:32:52.999Z,76.67
2023-05-06T01:35:43.818Z,76.74
2023-05-06T01:38:10.210Z,76.82
2023-05-06T01:40:37.255Z,76.62
2023-05-06T01:43:06.389Z,76.97
2023-05-06T01:45:36.265Z,77.10
2023-05-06T01:48:04.922Z,77.05
2023-05-06T01:50:32.787Z,77.25
2023-05-06T01:53:02.092Z,77.30
2023-05-06T01:55:28.805Z,77.15
2023-05-06T01:57:56.664Z,77.25
2023-05-06T02:00:27.576Z,77.24
2023-05-06T02:02:54.068Z,77.42
2023-05-06T02:05:20.806Z,77.25
2023-05-06T02:07:51.350Z,77.36
2023-05-06T02:10:19.061Z,77.36
2023-05-06T02:12:51.081Z,77.32
2023-05-06T02:15:17.545Z,77.56
2023-05-06T02:17:44.032Z,77.56
2023-05-06T02:20:10.815Z,77.55
2023-05-06T02:22:37.174Z,77.41
2023-05-06T02:25:03.924Z,77.22
2023-05-06T02:27:30.804Z,77.75
2023-05-06T02:29:57.210Z,77.46
2023-05-06T02:32:23.753Z,77.60
2023-05-06T02:34:51.597Z,77.78
2023-05-06T02:37:20.269Z,77.79
2023-05-06T02:39:46.704Z,77.94
2023-05-06T02:42:14.003Z,77.92
2023-05-06T02:44:40.734Z,77.76
2023-05-06T02:47:07.177Z,77.89
2023-05-06T02:49:33.706Z,77.88
2023-05-06T02:52:00.074Z,77.87
2023-05-06T02:54:27.335Z,77.81
2023-05-06T02:56:53.766Z,77.98
2023-05-06T02:59:20.137Z,78.27
2023-05-06T03:01:46.511Z,78.04
2023-05-06T03:04:13.118Z,78.14
2023-05-06T03:06:39.617Z,78.07
2023-05-06T03:09:06.351Z,77.96
2023-05-06T03:11:33.157Z,77.83
2023-05-06T03:14:03.494Z,77.84
2023-05-06T03:16:30.325Z,77.94
2023-05-06T03:18:59.357Z,78.04
2023-05-06T03:21:26.082Z,78.11
2023-05-06T03:23:53.242Z,77.84
2023-05-06T03:26:22.980Z,77.86
2023-05-06T03:28:50.122Z,78.00
2023-05-06T03:31:19.377Z,77.98
2023-05-06T03:33:46.046Z,77.87
2023-05-06T03:36:13.987Z,77.98
2023-05-06T03:38:42.326Z,77.94
2023-05-06T03:41:09.791Z,77.90
2023-05-06T03:43:37.350Z,77.99
2023-05-06T03:46:04.920Z,77.91
2023-05-06T03:48:34.431Z,78.08
2023-05-06T03:51:01.119Z,78.22
2023-05-06T03:53:28.673Z,78.01
2023-05-06T03:55:55.218Z,77.99
2023-05-06T03:58:22.298Z,78.18
2023-05-06T04:00:50.562Z,78.08
2023-05-06T04:03:17.158Z,78.24
2023-05-06T04:05:49.080Z,78.28
2023-05-06T04:08:18.233Z,78.32
2023-05-06T04:10:45.558Z,78.22
2023-05-06T04:13:26.411Z,78.14
2023-05-06T04:15:53.388Z,78.14
2023-05-06T04:18:24.890Z,78.60
2023-05-06T04:21:00.147Z,78.24
2023-05-06T04:23:27.898Z,78.46
2023-05-06T04:25:57.729Z,78.56
2023-05-06T04:28:24.822Z,78.68
2023-05-06T04:30:52.741Z,78.64
2023-05-06T04:33:22.372Z,78.68
2023-05-06T04:35:59.325Z,78.82
2023-05-06T04:38:30.516Z,78.84
2023-05-06T04:40:57.358Z,78.83
2023-05-06T04:43:27.737Z,78.51
2023-05-06T04:46:01.684Z,78.58
2023-05-06T04:48:31.925Z,78.77
2023-05-06T04:50:59.428Z,78.95
2023-05-06T04:53:25.993Z,78.84
2023-05-06T04:55:52.432Z,78.75
2023-05-06T04:58:19.478Z,78.75
2023-05-06T05:00:46.822Z,78.76
2023-05-06T05:03:13.399Z,78.79
2023-05-06T05:05:40.098Z,78.70
2023-05-06T05:08:13.834Z,78.72
2023-05-06T05:10:43.262Z,78.54
2023-05-06T05:13:13.766Z,78.54
2023-05-06T05:15:40.453Z,78.54
2023-05-06T05:18:08.964Z,78.30
2023-05-06T05:20:36.128Z,77.99
2023-05-06T05:23:04.873Z,78.04
2023-05-06T05:25:32.151Z,78.13
2023-05-06T05:27:58.685Z,78.60
2023-05-06T05:30:26.076Z,78.70
2023-05-06T05:32:53.873Z,78.61
2023-05-06T05:35:20.652Z,78.73
2023-05-06T05:37:47.948Z,78.93
2023-05-06T05:40:15.619Z,78.78
2023-05-06T05:42:43.255Z,79.02
2023-05-06T05:45:18.259Z,79.28
2023-05-06T05:47:45.124Z,79.28
2023-05-06T05:50:12.327Z,79.81
2023-05-06T05:52:39.835Z,79.13
2023-05-06T05:55:07.261Z,79.35
2023-05-06T05:57:34.588Z,79.53
2023-05-06T06:00:01.215Z,79.47
2023-05-06T06:02:31.242Z,79.41
2023-05-06T06:04:57.778Z,79.32
2023-05-06T06:07:24.198Z,79.43
2023-05-06T06:09:50.706Z,78.89
2023-05-06T06:12:18.044Z,79.14
2023-05-06T06:14:48.420Z,79.01
2023-05-06T06:17:18.014Z,79.18
2023-05-06T06:19:46.067Z,78.82
2023-05-06T06:22:13.123Z,79.05
2023-05-06T06:24:39.736Z,79.06
2023-05-06T06:27:06.243Z,78.78
2023-05-06T06:29:33.132Z,79.35
2023-05-06T06:31:59.564Z,79.07
2023-05-06T06:34:26.184Z,78.52
2023-05-06T06:36:52.581Z,77.74
2023-05-06T06:39:19.064Z,77.05
2023-05-06T06:41:45.497Z,76.75
2023-05-06T06:44:11.919Z,76.54
2023-05-06T06:46:38.823Z,76.41
2023-05-06T06:49:05.395Z,75.93
2023-05-06T06:51:32.282Z,75.64
2023-05-06T06:53:58.739Z,75.81
2023-05-06T06:56:25.150Z,75.14
2023-05-06T06:58:53.287Z,75.26
2023-05-06T07:01:20.090Z,74.61
2023-05-06T07:03:46.731Z,75.09
2023-05-06T07:06:13.224Z,74.96
2023-05-06T07:08:39.674Z,75.02
2023-05-06T07:11:06.065Z,74.84
2023-05-06T07:13:32.431Z,74.66
2023-05-06T07:15:58.830Z,74.63
2023-05-06T07:18:25.259Z,75.30
2023-05-06T07:20:51.695Z,75.19
2023-05-06T07:23:18.113Z,74.47
2023-05-06T07:25:44.638Z,74.38
2023-05-06T07:28:11.124Z,73.94
2023-05-06T07:30:38.706Z,74.34
2023-05-06T07:33:05.108Z,73.80
2023-05-06T07:35:31.672Z,73.85
2023-05-06T07:37:58.213Z,73.33
2023-05-06T07:40:24.643Z,73.00
2023-05-06T07:42:51.183Z,72.88
2023-05-06T07:45:19.515Z,72.64
2023-05-06T07:47:46.243Z,71.96
2023-05-06T07:50:12.650Z,71.79
2023-05-06T07:52:39.142Z,71.59
2023-05-06T07:55:06.291Z,71.54
2023-05-06T07:57:32.704Z,71.37
2023-05-06T07:59:59.154Z,71.40
2023-05-06T08:02:27.028Z,71.45
2023-05-06T08:04:53.748Z,71.04
2023-05-06T08:07:20.330Z,70.31
2023-05-06T08:09:46.909Z,70.09
2023-05-06T08:12:13.504Z,69.03
2023-05-06T08:14:39.962Z,68.95
2023-05-06T08:17:06.361Z,68.23
2023-05-06T08:19:32.864Z,68.41
2023-05-06T08:21:59.244Z,67.06
2023-05-06T08:24:25.664Z,66.73
2023-05-06T08:26:52.239Z,67.27
2023-05-06T08:29:19.110Z,67.43
2023-05-06T08:31:47.044Z,67.63
2023-05-06T08:34:13.592Z,67.46
2023-05-06T08:36:40.034Z,67.34
2023-05-06T08:39:06.510Z,66.50
2023-05-06T08:41:34.493Z,66.22
2023-05-06T08:44:03.239Z,66.53
2023-05-06T08:46:30.994Z,66.76
2023-05-06T08:48:59.126Z,65.87
2023-05-06T08:51:31.668Z,65.93
2023-05-06T08:54:02.153Z,65.70
2023-05-06T08:56:32.650Z,64.14
2023-05-06T08:58:59.596Z,65.03
2023-05-06T09:01:27.939Z,64.53
2023-05-06T09:03:56.730Z,64.66
2023-05-06T09:06:24.157Z,63.58
2023-05-06T09:08:50.937Z,63.64
2023-05-06T09:11:24.841Z,64.11
2023-05-06T09:14:06.883Z,64.29
2023-05-06T09:16:33.400Z,64.06
2023-05-06T09:18:59.894Z,63.67
2023-05-06T09:21:36.716Z,62.81
2023-05-06T09:24:04.900Z,62.68
2023-05-06T09:26:33.287Z,62.04
2023-05-06T09:29:00.395Z,62.15
2023-05-06T09:31:28.069Z,61.74
2023-05-06T09:33:57.093Z,61.05
2023-05-06T09:36:25.246Z,59.83
2023-05-06T09:38:53.911Z,60.43
2023-05-06T09:41:21.553Z,60.52
2023-05-06T09:43:49.212Z,60.59
2023-05-06T09:46:19.311Z,59.86
2023-05-06T09:48:46.843Z,59.58
2023-05-06T09:51:13.393Z,59.57
2023-05-06T09:53:39.924Z,58.52
2023-05-06T09:56:07.810Z,58.38
2023-05-06T09:58:35.804Z,57.78
2023-05-06T10:01:07.796Z,57.78
2023-05-06T10:03:35.589Z,57.90
2023-05-06T10:06:04.593Z,57.27
2023-05-06T10:08:33.254Z,57.52
2023-05-06T10:11:01.598Z,57.15
2023-05-06T10:13:28.381Z,57.21
2023-05-06T10:15:55.315Z,57.94
2023-05-06T10:18:26.401Z,58.04
2023-05-06T10:20:55.188Z,58.02
2023-05-06T10:23:43.186Z,56.51
2023-05-06T10:26:11.762Z,56.23
2023-05-06T10:28:41.090Z,56.27
2023-05-06T10:31:15.851Z,56.06
2023-05-06T10:33:45.786Z,56.47
2023-05-06T10:36:20.310Z,56.50
2023-05-06T10:38:54.573Z,56.83
2023-05-06T10:41:22.286Z,56.31
2023-05-06T10:43:56.602Z,56.26
2023-05-06T10:46:26.081Z,55.99
2023-05-06T10:49:04.744Z,55.86
2023-05-06T10:51:32.779Z,55.85
2023-05-06T10:54:05.548Z,55.72
2023-05-06T10:56:34.458Z,54.98
2023-05-06T10:59:09.020Z,54.93
2023-05-06T11:01:37.073Z,55.48
2023-05-06T11:04:15.086Z,56.06
2023-05-06T11:06:46.639Z,56.61
2023-05-06T11:09:27.468Z,56.07
2023-05-06T11:12:02.897Z,56.52
2023-05-06T11:14:38.544Z,56.57
2023-05-06T11:17:30.256Z,56.69
2023-05-06T11:20:18.306Z,56.40
2023-05-06T11:22:44.742Z,56.30
2023-05-06T11:25:11.195Z,56.03
2023-05-06T11:27:37.647Z,55.25
2023-05-06T11:30:05.203Z,55.46
2023-05-06T11:32:33.144Z,54.01
2023-05-06T11:34:59.672Z,53.12
2023-05-06T11:37:28.169Z,53.52
2023-05-06T11:39:54.564Z,53.32
2023-05-06T11:42:25.750Z,53.13
2023-05-06T11:44:57.128Z,53.50
2023-05-06T11:47:24.078Z,53.28
2023-05-06T11:49:54.737Z,52.86
2023-05-06T11:52:21.133Z,52.88
2023-05-06T11:54:50.074Z,52.06
2023-05-06T11:57:16.634Z,52.07
2023-05-06T11:59:43.058Z,50.91
2023-05-06T12:02:12.771Z,51.96
2023-05-06T12:04:47.108Z,52.57
2023-05-06T12:07:15.191Z,52.81
2023-05-06T12:09:49.385Z,52.97
2023-05-06T12:12:19.389Z,53.24
2023-05-06T12:14:47.353Z,52.90
2023-05-06T12:17:14.666Z,52.70
2023-05-06T12:19:41.395Z,51.79
2023-05-06T12:22:15.677Z,52.31
2023-05-06T12:24:42.211Z,52.38
2023-05-06T12:27:08.580Z,52.78
2023-05-06T12:29:35.096Z,53.01
2023-05-06T12:32:09.434Z,53.37
2023-05-06T12:34:40.682Z,53.92
2023-05-06T12:37:08.643Z,53.90
2023-05-06T12:39:39.533Z,53.37
2023-05-06T12:42:06.629Z,52.30
2023-05-06T12:44:37.296Z,51.77
2023-05-06T12:47:07.371Z,52.30
2023-05-06T12:49:58.079Z,52.16
2023-05-06T12:52:27.449Z,52.07
2023-05-06T12:54:54.107Z,51.84
2023-05-06T12:57:21.387Z,51.19
2023-05-06T12:59:48.885Z,51.83
2023-05-06T13:02:15.614Z,52.78
2023-05-06T13:04:42.153Z,52.99
2023-05-06T13:07:08.649Z,52.85
2023-05-06T13:09:35.140Z,52.35
2023-05-06T13:12:02.393Z,52.27
2023-05-06T13:14:28.849Z,52.16
2023-05-06T13:16:55.841Z,51.50
2023-05-06T13:19:32.203Z,50.76
2023-05-06T13:22:00.393Z,51.42
2023-05-06T13:24:27.094Z,52.31
2023-05-06T13:26:53.594Z,52.01
2023-05-06T13:29:20.059Z,51.76
2023-05-06T13:31:46.601Z,51.47
2023-05-06T13:34:13.079Z,49.68
2023-05-06T13:36:39.506Z,48.97
2023-05-06T13:39:05.988Z,49.54
2023-05-06T13:41:32.772Z,49.49
2023-05-06T13:43:59.356Z,49.50
2023-05-06T13:46:27.258Z,49.70
2023-05-06T13:48:53.792Z,49.11
2023-05-06T13:51:20.419Z,48.21
2023-05-06T13:53:46.812Z,48.23
2023-05-06T13:56:13.298Z,47.26
2023-05-06T13:58:39.729Z,47.57
2023-05-06T14:01:06.202Z,47.42
2023-05-06T14:03:32.621Z,46.63
2023-05-06T14:05:59.120Z,44.72
2023-05-06T14:08:25.610Z,45.28
2023-05-06T14:10:52.006Z,45.92
2023-05-06T14:13:18.431Z,46.46
2023-05-06T14:15:45.848Z,46.11
2023-05-06T14:18:12.473Z,46.25
2023-05-06T14:20:39.029Z,46.67
2023-05-06T14:23:06.801Z,46.84
2023-05-06T14:25:34.338Z,45.87
2023-05-06T14:28:00.839Z,45.88
2023-05-06T14:30:27.380Z,46.05
2023-05-06T14:32:54.136Z,45.71
2023-05-06T14:35:20.824Z,45.59
2023-05-06T14:37:47.306Z,45.03
2023-05-06T14:40:15.424Z,45.72
2023-05-06T14:42:42.996Z,46.43
2023-05-06T14:45:11.994Z,45.85
2023-05-06T14:47:40.631Z,46.09
2023-05-06T14:50:09.280Z,45.64
2023-05-06T14:52:36.877Z,45.98
2023-05-06T14:55:06.010Z,45.77
2023-05-06T14:57:32.527Z,46.29
2023-05-06T14:59:58.991Z,46.31
2023-05-06T15:02:25.555Z,49.26
2023-05-06T15:04:51.957Z,51.05
2023-05-06T15:07:18.530Z,51.66
2023-05-06T15:09:45.226Z,52.08
2023-05-06T15:12:11.697Z,52.97
2023-05-06T15:14:38.905Z,53.33
2023-05-06T15:17:05.886Z,53.69
2023-05-06T15:19:33.436Z,54.43
2023-05-06T15:22:00.433Z,54.29
2023-05-06T15:24:26.895Z,54.33
2023-05-06T15:26:53.753Z,54.32
2023-05-06T15:29:20.292Z,54.49
2023-05-06T15:31:47.241Z,54.26
2023-05-06T15:34:14.070Z,55.25
2023-05-06T15:36:44.276Z,55.58
2023-05-06T15:39:10.749Z,55.96
2023-05-06T15:41:37.940Z,56.15
2023-05-06T15:44:06.175Z,56.53
2023-05-06T15:46:33.281Z,56.47
2023-05-06T15:49:17.374Z,56.40
2023-05-06T15:51:46.729Z,56.15
2023-05-06T15:54:13.350Z,56.34
2023-05-06T15:56:41.530Z,56.44
2023-05-06T15:59:08.567Z,56.45
2023-05-06T16:02:04.743Z,56.00
2023-05-06T16:04:22.069Z,56.28
2023-05-06T16:06:48.787Z,56.49
2023-05-06T16:09:15.302Z,56.48
2023-05-06T16:11:41.696Z,56.10
2023-05-06T16:14:08.079Z,56.74
2023-05-06T16:16:34.588Z,56.52
2023-05-06T16:19:01.129Z,56.42
2023-05-06T16:21:28.604Z,56.98
2023-05-06T16:23:55.082Z,57.32
2023-05-06T16:26:21.541Z,57.23
2023-05-06T16:28:47.940Z,57.83
2023-05-06T16:31:14.429Z,59.01
2023-05-06T16:33:41.005Z,59.30
2023-05-06T16:36:07.852Z,60.28
2023-05-06T16:38:34.525Z,60.51
2023-05-06T16:41:01.014Z,60.64
2023-05-06T16:43:27.632Z,60.83
2023-05-06T16:45:54.113Z,61.16
2023-05-06T16:48:20.547Z,60.73
2023-05-06T16:50:47.083Z,60.78
2023-05-06T16:53:13.785Z,61.17
2023-05-06T16:55:40.324Z,61.46
2023-05-06T16:58:06.745Z,61.79
2023-05-06T17:00:33.345Z,61.47
2023-05-06T17:03:00.209Z,61.14
2023-05-06T17:05:28.021Z,61.38
2023-05-06T17:07:54.464Z,62.21
2023-05-06T17:10:21.901Z,61.98
2023-05-06T17:12:48.312Z,61.92
2023-05-06T17:15:14.735Z,62.37
2023-05-06T17:17:41.245Z,62.60
2023-05-06T17:20:08.497Z,62.73
2023-05-06T17:22:35.166Z,62.59
2023-05-06T17:25:02.044Z,62.34
2023-05-06T17:27:28.576Z,62.64
2023-05-06T17:29:55.123Z,63.27
2023-05-06T17:32:22.641Z,63.16
2023-05-06T17:34:49.242Z,62.51
2023-05-06T17:37:15.856Z,62.71
2023-05-06T17:39:42.284Z,62.48
2023-05-06T17:42:09.510Z,62.42
2023-05-06T17:44:37.930Z,62.90
2023-05-06T17:47:04.429Z,62.32
2023-05-06T17:49:34.153Z,62.29
2023-05-06T17:52:01.703Z,62.59
2023-05-06T17:54:32.348Z,63.41
2023-05-06T17:57:00.630Z,63.42
2023-05-06T17:59:28.155Z,63.84
2023-05-06T18:01:54.959Z,63.92
2023-05-06T18:04:21.435Z,64.53
2023-05-06T18:06:47.800Z,64.31
2023-05-06T18:09:14.807Z,64.36
2023-05-06T18:11:41.263Z,64.63
2023-05-06T18:14:08.056Z,64.61
2023-05-06T18:16:34.623Z,64.64
2023-05-06T18:19:03.313Z,64.41
2023-05-06T18:21:29.744Z,64.35
2023-05-06T18:24:05.694Z,65.16
2023-05-06T18:26:45.398Z,64.69
2023-05-06T18:29:12.622Z,64.83
2023-05-06T18:31:39.271Z,65.48
2023-05-06T18:34:05.818Z,65.99
2023-05-06T18:36:32.562Z,65.33
2023-05-06T18:38:59.019Z,66.08
2023-05-06T18:41:25.619Z,66.07
2023-05-06T18:43:52.248Z,66.30
2023-05-06T18:46:18.803Z,66.44
2023-05-06T18:48:45.427Z,66.64
2023-05-06T18:51:17.942Z,67.30
2023-05-06T18:53:44.966Z,66.96
2023-05-06T18:56:11.866Z,67.85
2023-05-06T18:58:40.088Z,68.13
2023-05-06T19:01:08.991Z,69.15
2023-05-06T19:03:35.793Z,69.43
2023-05-06T19:06:04.036Z,69.79
2023-05-06T19:08:31.568Z,70.21
2023-05-06T19:11:02.005Z,70.13
2023-05-06T19:13:28.538Z,70.94
2023-05-06T19:15:55.166Z,71.94
2023-05-06T19:18:21.639Z,72.79
2023-05-06T19:20:48.123Z,73.33
2023-05-06T19:23:14.542Z,73.79
2023-05-06T19:25:41.021Z,73.47
2023-05-06T19:28:07.932Z,73.42
2023-05-06T19:30:35.641Z,74.24
2023-05-06T19:33:03.192Z,74.59
2023-05-06T19:35:30.029Z,74.26
2023-05-06T19:37:56.691Z,74.47
2023-05-06T19:40:23.265Z,74.33
2023-05-06T19:42:49.813Z,74.27
2023-05-06T19:45:17.499Z,74.28
2023-05-06T19:47:45.625Z,74.08
2023-05-06T19:50:12.799Z,74.23
2023-05-06T19:52:39.934Z,73.67
2023-05-06T19:55:07.201Z,73.79
2023-05-06T19:57:33.876Z,73.66
2023-05-06T20:00:04.962Z,73.54
2023-05-06T20:02:32.373Z,73.21
2023-05-06T20:05:00.103Z,73.48
2023-05-06T20:07:26.708Z,73.84
2023-05-06T20:09:55.327Z,74.06
2023-05-06T20:12:22.936Z,73.91
2023-05-06T20:14:49.688Z,74.12
2023-05-06T20:17:16.565Z,74.41
2023-05-06T20:19:43.130Z,74.28
2023-05-06T20:22:09.530Z,74.19
2023-05-06T20:24:37.289Z,74.25
2023-05-06T20:27:03.681Z,74.02
2023-05-06T20:29:30.718Z,74.03
2023-05-06T20:31:57.339Z,73.97
2023-05-06T20:34:23.816Z,74.25
2023-05-06T20:36:50.505Z,74.15
2023-05-06T20:39:16.959Z,74.39
2023-05-06T20:41:43.397Z,74.24
2023-05-06T20:44:09.908Z,74.46
2023-05-06T20:46:36.405Z,74.44
2023-05-06T20:49:02.775Z,74.69
2023-05-06T20:51:29.372Z,74.78
2023-05-06T20:53:56.523Z,74.83
2023-05-06T20:56:24.813Z,74.27
2023-05-06T20:58:52.351Z,74.48
2023-05-06T21:01:20.957Z,74.78
2023-05-06T21:03:47.843Z,74.83
2023-05-06T21:06:18.974Z,74.89
2023-05-06T21:08:46.529Z,75.13
2023-05-06T21:11:13.443Z,74.84
2023-05-06T21:13:40.619Z,74.69
2023-05-06T21:16:07.077Z,75.01
2023-05-06T21:18:33.488Z,75.26
2023-05-06T21:21:00.187Z,75.00
2023-05-06T21:23:26.698Z,75.08
2023-05-06T21:25:53.185Z,74.94
2023-05-06T21:28:19.607Z,75.21
2023-05-06T21:30:46.086Z,75.62
2023-05-06T21:33:12.637Z,75.57
2023-05-06T21:35:39.028Z,75.58
2023-05-06T21:38:05.514Z,75.57
2023-05-06T21:40:32.017Z,75.98
2023-05-06T21:42:58.687Z,75.79
2023-05-06T21:45:25.054Z,75.70
2023-05-06T21:47:51.642Z,75.83
2023-05-06T21:50:18.121Z,76.06
2023-05-06T21:52:44.523Z,75.92
2023-05-06T21:55:11.523Z,76.38
2023-05-06T21:57:38.732Z,76.24
2023-05-06T22:00:11.926Z,76.11
2023-05-06T22:02:40.200Z,76.34
2023-05-06T22:05:08.309Z,76.34
2023-05-06T22:07:35.887Z,76.04
2023-05-06T22:10:02.708Z,76.33
2023-05-06T22:12:29.103Z,76.22
2023-05-06T22:14:55.837Z,76.34
2023-05-06T22:17:22.376Z,76.36
2023-05-06T22:19:48.878Z,76.92
2023-05-06T22:22:16.089Z,77.09
2023-05-06T22:24:42.612Z,77.01
2023-05-06T22:27:09.047Z,77.17
2023-05-06T22:29:35.439Z,77.06
2023-05-06T22:32:02.202Z,77.09
2023-05-06T22:34:28.732Z,77.20
2023-05-06T22:36:55.519Z,77.17
2023-05-06T22:39:22.566Z,77.17
2023-05-06T22:41:50.750Z,77.36
2023-05-06T22:44:17.382Z,77.51
2023-05-06T22:46:43.825Z,77.75
2023-05-06T22:49:10.265Z,77.48
2023-05-06T22:51:36.659Z,77.88
2023-05-06T22:54:03.168Z,77.64
2023-05-06T22:56:29.536Z,77.78
2023-05-06T22:58:55.988Z,77.88
2023-05-06T23:01:22.775Z,77.87
2023-05-06T23:03:49.260Z,77.88
2023-05-06T23:06:15.705Z,77.68
2023-05-06T23:08:42.149Z,77.79
2023-05-06T23:11:08.536Z,78.12
2023-05-06T23:13:36.359Z,77.70
2023-05-06T23:16:02.841Z,78.14
2023-05-06T23:18:29.241Z,78.39
2023-05-06T23:20:55.681Z,78.08
2023-05-06T23:23:22.072Z,78.13
2023-05-06T23:25:48.561Z,78.30
2023-05-06T23:28:15.003Z,78.09
2023-05-06T23:30:41.561Z,78.17
2023-05-06T23:33:08.801Z,78.37
2023-05-06T23:35:35.436Z,78.07
2023-05-06T23:38:01.883Z,78.17
2023-05-06T23:40:28.366Z,78.39
2023-05-06T23:42:54.807Z,78.17
2023-05-06T23:45:21.253Z,78.34
2023-05-06T23:47:47.715Z,78.45
2023-05-06T23:50:14.548Z,78.73
2023-05-06T23:52:41.199Z,78.39
2023-05-06T23:55:07.944Z,78.66
2023-05-06T23:57:34.362Z,78.79
